createdAt,value
2022-08-18T00:01:23.050Z,51.17
2022-08-18T00:03:56.432Z,51.14
2022-08-18T00:06:29.569Z,51.26
2022-08-18T00:08:58.816Z,51.16
2022-08-18T00:11:26.689Z,51.31
2022-08-18T00:13:54.387Z,51.05
2022-08-18T00:16:22.139Z,51.31
2022-08-18T00:18:49.845Z,51.30
2022-08-18T00:21:17.731Z,51.38
2022-08-18T00:23:46.765Z,51.29
2022-08-18T00:26:14.489Z,51.37
2022-08-18T00:28:42.194Z,51.25
2022-08-18T00:31:09.948Z,51.26
2022-08-18T00:33:37.650Z,51.68
2022-08-18T00:36:05.855Z,51.45
2022-08-18T00:38:33.539Z,51.62
2022-08-18T00:41:02.589Z,51.68
2022-08-18T00:43:33.248Z,51.55
2022-08-18T00:46:00.961Z,51.41
2022-08-18T00:48:30.084Z,51.85
2022-08-18T00:50:59.178Z,51.59
2022-08-18T00:53:29.420Z,51.81
2022-08-18T00:55:57.496Z,51.74
2022-08-18T00:58:29.282Z,51.67
2022-08-18T01:00:57.089Z,51.69
2022-08-18T01:03:25.321Z,51.79
2022-08-18T01:05:54.875Z,51.87
2022-08-18T01:08:28.946Z,51.95
2022-08-18T01:10:57.223Z,51.95
2022-08-18T01:13:28.149Z,51.84
2022-08-18T01:15:55.925Z,51.74
2022-08-18T01:18:52.784Z,52.17
2022-08-18T01:21:41.101Z,52.00
2022-08-18T01:24:11.501Z,52.11
2022-08-18T01:26:45.560Z,52.09
2022-08-18T01:29:18.619Z,52.04
2022-08-18T01:31:54.723Z,52.12
2022-08-18T01:34:24.700Z,52.22
2022-08-18T01:36:53.376Z,52.36
2022-08-18T01:41:25.812Z,52.13
2022-08-18T01:42:10.295Z,52.14
2022-08-18T01:44:40.528Z,52.25
2022-08-18T01:47:08.729Z,52.36
2022-08-18T01:49:36.432Z,52.20
2022-08-18T01:52:07.183Z,52.51
2022-08-18T01:54:36.217Z,52.19
2022-08-18T01:57:04.170Z,52.21
2022-08-18T01:59:31.898Z,52.39
2022-08-18T02:02:00.423Z,52.52
2022-08-18T02:04:37.306Z,52.30
2022-08-18T02:07:06.865Z,52.43
2022-08-18T02:09:36.564Z,52.43
2022-08-18T02:12:05.832Z,52.23
2022-08-18T02:14:33.556Z,52.47
2022-08-18T02:17:02.902Z,52.49
2022-08-18T02:19:34.059Z,52.65
2022-08-18T02:22:01.862Z,52.48
2022-08-18T02:24:29.566Z,52.75
2022-08-18T02:26:58.659Z,52.58
2022-08-18T02:29:26.339Z,52.65
2022-08-18T02:31:54.176Z,52.48
2022-08-18T02:34:21.864Z,52.59
2022-08-18T02:36:49.584Z,52.90
2022-08-18T02:39:17.277Z,52.55
2022-08-18T02:41:45.002Z,52.79
2022-08-18T02:44:14.343Z,52.76
2022-08-18T02:46:42.061Z,52.52
2022-08-18T02:49:09.756Z,52.73
2022-08-18T02:51:37.500Z,52.67
2022-08-18T02:54:09.313Z,52.67
2022-08-18T02:56:41.308Z,52.98
2022-08-18T02:59:11.178Z,52.79
2022-08-18T03:01:42.116Z,52.92
2022-08-18T03:04:11.035Z,52.67
2022-08-18T03:06:39.225Z,52.70
2022-08-18T03:09:08.190Z,52.58
2022-08-18T03:11:35.946Z,52.51
2022-08-18T03:14:05.340Z,52.51
2022-08-18T03:16:33.248Z,52.83
2022-08-18T03:19:02.628Z,52.93
2022-08-18T03:21:31.363Z,52.77
2022-08-18T03:24:00.938Z,52.71
2022-08-18T03:26:30.232Z,52.87
2022-08-18T03:28:58.408Z,53.01
2022-08-18T03:31:27.733Z,53.00
2022-08-18T03:33:59.412Z,52.80
2022-08-18T03:36:30.677Z,53.01
2022-08-18T03:38:58.409Z,53.08
2022-08-18T03:41:43.823Z,52.92
2022-08-18T03:44:15.362Z,52.97
2022-08-18T03:46:43.165Z,52.96
2022-08-18T03:49:11.012Z,52.91
2022-08-18T03:51:40.197Z,53.20
2022-08-18T03:54:07.891Z,53.00
2022-08-18T03:56:38.147Z,52.94
2022-08-18T03:59:08.631Z,52.87
2022-08-18T04:01:39.490Z,52.83
2022-08-18T04:04:08.515Z,53.10
2022-08-18T04:06:39.367Z,52.94
2022-08-18T04:09:10.514Z,52.83
2022-08-18T04:11:38.675Z,52.91
2022-08-18T04:14:06.372Z,53.05
2022-08-18T04:16:34.910Z,53.02
2022-08-18T04:19:04.169Z,52.92
2022-08-18T04:21:32.989Z,52.97
2022-08-18T04:24:04.802Z,52.87
2022-08-18T04:26:34.545Z,52.94
2022-08-18T04:29:02.355Z,53.17
2022-08-18T04:31:30.319Z,52.98
2022-08-18T04:33:58.454Z,53.06
2022-08-18T04:36:26.335Z,52.99
2022-08-18T04:41:12.436Z,52.82
2022-08-18T04:43:41.590Z,53.06
2022-08-18T04:46:09.449Z,53.06
2022-08-18T04:48:38.363Z,52.96
2022-08-18T04:51:07.957Z,53.21
2022-08-18T04:53:46.964Z,53.18
2022-08-18T04:56:15.770Z,52.94
2022-08-18T04:58:52.252Z,53.06
2022-08-18T05:01:20.470Z,53.08
2022-08-18T05:03:50.281Z,53.33
2022-08-18T05:06:18.437Z,53.38
2022-08-18T05:08:48.293Z,53.12
2022-08-18T05:11:16.024Z,53.43
2022-08-18T05:13:43.965Z,53.39
2022-08-18T05:16:18.050Z,53.48
2022-08-18T05:18:47.281Z,53.47
2022-08-18T05:21:15.764Z,53.30
2022-08-18T05:23:43.793Z,53.55
2022-08-18T05:26:11.800Z,53.31
2022-08-18T05:28:39.493Z,53.60
2022-08-18T05:31:13.525Z,53.40
2022-08-18T05:33:43.012Z,53.27
2022-08-18T05:36:14.504Z,53.58
2022-08-18T05:38:48.589Z,53.65
2022-08-18T05:41:22.805Z,53.70
2022-08-18T05:43:51.982Z,53.74
2022-08-18T05:46:20.896Z,53.42
2022-08-18T05:48:51.026Z,53.52
2022-08-18T05:51:20.987Z,53.37
2022-08-18T05:54:05.888Z,53.56
2022-08-18T05:56:47.589Z,53.87
2022-08-18T05:59:23.115Z,53.45
2022-08-18T06:01:54.201Z,53.36
2022-08-18T06:04:31.392Z,53.67
2022-08-18T06:06:59.136Z,53.50
2022-08-18T06:09:29.198Z,53.47
2022-08-18T06:12:00.037Z,53.30
2022-08-18T06:14:27.759Z,53.48
2022-08-18T06:16:57.843Z,53.14
2022-08-18T06:19:36.103Z,53.39
2022-08-18T06:22:07.641Z,53.38
2022-08-18T06:24:37.485Z,53.49
2022-08-18T06:27:09.941Z,53.40
2022-08-18T06:29:47.892Z,53.35
2022-08-18T06:32:19.710Z,53.09
2022-08-18T06:34:57.380Z,53.32
2022-08-18T06:37:27.545Z,52.96
2022-08-18T06:39:57.175Z,53.22
2022-08-18T06:42:30.496Z,52.97
2022-08-18T06:45:01.133Z,52.98
2022-08-18T06:47:35.608Z,52.93
2022-08-18T06:50:07.019Z,52.90
2022-08-18T06:52:35.990Z,52.76
2022-08-18T06:55:06.145Z,52.88
2022-08-18T06:57:34.965Z,53.03
2022-08-18T07:00:07.518Z,53.11
2022-08-18T07:02:48.278Z,52.96
2022-08-18T07:05:24.881Z,53.00
2022-08-18T07:08:11.467Z,53.01
2022-08-18T07:10:40.249Z,52.81
2022-08-18T07:13:23.463Z,53.01
2022-08-18T07:15:51.756Z,53.01
2022-08-18T07:18:24.560Z,53.04
2022-08-18T07:20:54.705Z,52.80
2022-08-18T07:23:25.358Z,52.63
2022-08-18T07:26:00.363Z,52.53
2022-08-18T07:28:30.625Z,52.97
2022-08-18T07:31:17.315Z,52.99
2022-08-18T07:33:48.977Z,52.73
2022-08-18T07:36:18.068Z,52.77
2022-08-18T07:38:48.292Z,52.73
2022-08-18T07:41:18.068Z,52.86
2022-08-18T07:43:52.118Z,52.71
2022-08-18T07:46:23.865Z,52.80
2022-08-18T07:48:51.659Z,52.57
2022-08-18T07:51:24.328Z,52.51
2022-08-18T07:53:56.545Z,52.59
2022-08-18T07:56:29.636Z,52.72
2022-08-18T07:58:59.715Z,52.75
2022-08-18T08:01:33.664Z,52.56
2022-08-18T08:04:06.319Z,52.98
2022-08-18T08:06:38.929Z,52.44
2022-08-18T08:09:10.544Z,52.45
2022-08-18T08:11:44.573Z,52.34
2022-08-18T08:14:31.213Z,52.36
2022-08-18T08:17:04.652Z,52.45
2022-08-18T08:20:01.211Z,52.48
2022-08-18T08:22:32.773Z,52.36
2022-08-18T08:25:04.434Z,52.67
2022-08-18T08:27:39.336Z,52.46
2022-08-18T08:30:08.672Z,52.14
2022-08-18T08:32:37.318Z,52.07
2022-08-18T08:35:07.461Z,52.05
2022-08-18T08:37:42.196Z,52.14
2022-08-18T08:40:14.570Z,52.08
2022-08-18T08:42:44.439Z,52.17
2022-08-18T08:45:14.695Z,52.12
2022-08-18T08:47:45.414Z,51.92
2022-08-18T08:50:14.929Z,51.94
2022-08-18T08:52:45.818Z,52.02
2022-08-18T08:55:16.462Z,52.13
2022-08-18T08:57:46.811Z,52.10
2022-08-18T09:00:15.460Z,51.98
2022-08-18T09:02:53.980Z,51.72
2022-08-18T09:05:23.174Z,52.09
2022-08-18T09:08:03.076Z,51.66
2022-08-18T09:10:34.131Z,51.86
2022-08-18T09:13:10.840Z,51.80
2022-08-18T09:15:51.432Z,51.68
2022-08-18T09:18:37.177Z,51.79
2022-08-18T09:21:12.515Z,51.97
2022-08-18T09:23:43.651Z,51.88
2022-08-18T09:26:27.611Z,51.72
2022-08-18T09:28:58.049Z,51.35
2022-08-18T09:31:26.127Z,51.68
2022-08-18T09:34:09.721Z,51.27
2022-08-18T09:36:44.968Z,51.35
2022-08-18T09:39:40.411Z,51.40
2022-08-18T09:42:09.688Z,51.30
2022-08-18T09:48:30.837Z,51.15
2022-08-18T09:51:36.352Z,51.56
2022-08-18T09:54:20.857Z,51.60
2022-08-18T09:57:21.538Z,51.52
2022-08-18T10:00:24.331Z,51.63
2022-08-18T10:03:25.828Z,51.63
2022-08-18T10:06:16.048Z,51.54
2022-08-18T10:12:20.199Z,51.46
2022-08-18T10:15:12.274Z,51.63
2022-08-18T10:17:50.295Z,51.64
2022-08-18T10:20:27.134Z,51.70
2022-08-18T10:22:55.158Z,51.50
2022-08-18T10:25:33.708Z,51.59
2022-08-18T10:28:05.887Z,51.76
2022-08-18T10:33:59.719Z,51.60
2022-08-18T10:36:47.031Z,51.42
2022-08-18T10:39:15.849Z,51.60
2022-08-18T10:42:00.269Z,51.13
2022-08-18T10:44:29.575Z,51.43
2022-08-18T10:47:00.410Z,51.23
2022-08-18T10:49:28.900Z,51.31
2022-08-18T10:52:14.657Z,51.20
2022-08-18T10:54:54.521Z,51.13
2022-08-18T10:57:28.366Z,51.24
2022-08-18T10:59:58.250Z,50.94
2022-08-18T11:02:40.026Z,51.10
2022-08-18T11:05:09.539Z,51.02
2022-08-18T11:07:39.696Z,51.18
2022-08-18T11:10:34.692Z,51.06
2022-08-18T11:13:09.881Z,51.07
2022-08-18T11:15:45.205Z,51.01
2022-08-18T11:18:22.963Z,51.12
2022-08-18T11:20:52.342Z,51.19
2022-08-18T11:23:20.070Z,50.97
2022-08-18T11:25:48.433Z,51.16
2022-08-18T11:33:55.405Z,51.04
2022-08-18T11:36:31.458Z,51.02
2022-08-18T11:38:59.303Z,50.93
2022-08-18T11:41:33.918Z,50.91
2022-08-18T11:44:19.051Z,50.94
2022-08-18T11:46:51.763Z,50.90
2022-08-18T11:49:27.281Z,51.05
2022-08-18T11:51:57.429Z,50.78
2022-08-18T11:54:37.499Z,50.91
2022-08-18T11:57:42.800Z,50.88
2022-08-18T12:00:52.829Z,50.91
2022-08-18T12:03:28.514Z,50.90
2022-08-18T12:05:59.551Z,50.86
2022-08-18T12:08:56.983Z,50.74
2022-08-18T12:14:30.391Z,50.78
2022-08-18T12:17:01.407Z,50.70
2022-08-18T12:19:31.066Z,50.81
2022-08-18T12:22:01.938Z,50.79
2022-08-18T12:27:31.824Z,50.89
2022-08-18T12:30:01.728Z,50.97
2022-08-18T12:35:21.801Z,50.89
2022-08-18T12:37:59.547Z,51.04
2022-08-18T12:40:28.464Z,50.87
2022-08-18T12:42:56.820Z,50.74
2022-08-18T12:45:25.865Z,50.89
2022-08-18T12:47:55.028Z,50.89
2022-08-18T12:53:11.892Z,50.87
2022-08-18T12:55:43.715Z,50.92
2022-08-18T12:58:13.303Z,50.82
2022-08-18T13:00:41.741Z,50.74
2022-08-18T13:03:10.303Z,50.79
2022-08-18T13:05:38.299Z,50.93
2022-08-18T13:08:07.300Z,50.85
2022-08-18T13:10:44.967Z,50.69
2022-08-18T13:13:13.971Z,50.86
2022-08-18T13:15:44.274Z,50.65
2022-08-18T13:18:29.041Z,50.72
2022-08-18T13:20:57.666Z,50.82
2022-08-18T13:23:27.271Z,50.81
2022-08-18T13:26:01.231Z,50.70
2022-08-18T13:28:30.489Z,50.73
2022-08-18T13:30:58.521Z,50.80
2022-08-18T13:33:34.574Z,50.72
2022-08-18T13:36:14.140Z,50.77
2022-08-18T13:38:43.519Z,50.78
2022-08-18T13:41:15.619Z,50.80
2022-08-18T13:43:44.654Z,50.81
2022-08-18T13:46:16.803Z,50.81
2022-08-18T13:48:44.642Z,50.68
2022-08-18T13:51:19.254Z,50.78
2022-08-18T13:53:59.042Z,50.63
2022-08-18T13:56:35.618Z,50.68
2022-08-18T13:59:04.942Z,50.76
2022-08-18T14:01:44.208Z,50.58
2022-08-18T14:04:20.559Z,50.68
2022-08-18T14:06:51.456Z,50.74
2022-08-18T14:09:36.603Z,50.66
2022-08-18T14:12:21.463Z,50.79
2022-08-18T14:14:52.024Z,50.71
2022-08-18T14:17:20.159Z,50.77
2022-08-18T14:20:04.625Z,50.71
2022-08-18T14:22:50.025Z,50.84
2022-08-18T14:25:35.877Z,50.52
2022-08-18T14:28:05.293Z,50.64
2022-08-18T14:30:33.506Z,50.81
2022-08-18T14:33:01.606Z,50.73
2022-08-18T14:36:03.693Z,50.74
2022-08-18T14:38:17.511Z,50.88
2022-08-18T14:40:45.779Z,50.65
2022-08-18T14:43:15.767Z,50.87
2022-08-18T14:45:47.412Z,50.72
2022-08-18T14:48:17.648Z,50.84
2022-08-18T14:50:49.144Z,50.88
2022-08-18T14:53:20.152Z,50.89
2022-08-18T14:55:49.522Z,50.85
2022-08-18T14:58:20.960Z,50.84
2022-08-18T15:00:53.890Z,50.98
2022-08-18T15:03:31.082Z,50.88
2022-08-18T15:06:00.177Z,51.05
2022-08-18T15:08:28.196Z,51.12
2022-08-18T15:10:56.063Z,51.05
2022-08-18T15:13:26.682Z,50.93
2022-08-18T15:15:55.868Z,51.04
2022-08-18T15:18:29.912Z,51.03
2022-08-18T15:21:19.363Z,51.06
2022-08-18T15:24:20.502Z,51.04
2022-08-18T15:26:51.750Z,51.08
2022-08-18T15:29:28.047Z,51.06
2022-08-18T15:32:02.288Z,51.21
2022-08-18T15:34:46.320Z,51.25
2022-08-18T15:37:19.487Z,51.22
2022-08-18T15:39:55.568Z,51.13
2022-08-18T15:42:27.016Z,51.15
2022-08-18T15:44:56.791Z,50.99
2022-08-18T15:47:25.201Z,51.15
2022-08-18T15:49:54.674Z,51.07
2022-08-18T15:52:25.826Z,51.15
2022-08-18T15:54:57.006Z,51.17
2022-08-18T15:57:39.466Z,51.17
2022-08-18T16:00:11.963Z,51.23
2022-08-18T16:02:40.492Z,51.19
2022-08-18T16:05:14.269Z,51.25
2022-08-18T16:07:47.864Z,51.22
2022-08-18T16:10:16.173Z,51.28
2022-08-18T16:12:46.107Z,51.30
2022-08-18T16:15:19.461Z,51.15
2022-08-18T16:17:47.927Z,51.10
2022-08-18T16:20:15.831Z,51.26
2022-08-18T16:22:43.568Z,51.34
2022-08-18T16:25:11.348Z,51.24
2022-08-18T16:27:41.499Z,51.19
2022-08-18T16:30:10.244Z,51.26
2022-08-18T16:32:39.310Z,51.28
2022-08-18T16:35:07.500Z,51.32
2022-08-18T16:37:35.375Z,51.30
2022-08-18T16:40:03.245Z,51.31
2022-08-18T16:42:32.695Z,51.35
2022-08-18T16:45:00.543Z,51.43
2022-08-18T16:47:28.406Z,51.42
2022-08-18T16:49:58.701Z,51.54
2022-08-18T16:52:27.160Z,51.51
2022-08-18T16:54:57.389Z,51.48
2022-08-18T16:57:53.296Z,51.32
2022-08-18T17:00:41.044Z,51.43
2022-08-18T17:03:26.329Z,51.49
2022-08-18T17:06:02.595Z,51.46
2022-08-18T17:08:33.534Z,51.56
2022-08-18T17:11:01.868Z,51.69
2022-08-18T17:13:29.706Z,51.68
2022-08-18T17:15:57.477Z,51.47
2022-08-18T17:18:25.210Z,51.50
2022-08-18T17:20:53.482Z,51.57
2022-08-18T17:23:24.556Z,51.61
2022-08-18T17:25:52.270Z,51.57
2022-08-18T17:28:20.196Z,51.54
2022-08-18T17:30:52.813Z,51.60
2022-08-18T17:33:24.623Z,51.63
2022-08-18T17:35:54.104Z,51.55
2022-08-18T17:38:28.003Z,51.76
2022-08-18T17:40:56.594Z,51.58
2022-08-18T17:43:26.124Z,51.63
2022-08-18T17:45:55.361Z,51.67
2022-08-18T17:48:23.981Z,51.51
2022-08-18T17:51:13.673Z,51.54
2022-08-18T17:53:42.833Z,51.68
2022-08-18T17:56:12.748Z,51.83
2022-08-18T17:58:40.836Z,51.77
2022-08-18T18:01:09.010Z,51.76
2022-08-18T18:03:36.798Z,51.64
2022-08-18T18:06:10.326Z,51.56
2022-08-18T18:08:54.848Z,51.79
2022-08-18T18:11:27.391Z,51.87
2022-08-18T18:13:55.596Z,51.85
2022-08-18T18:16:29.224Z,51.71
2022-08-18T18:19:01.268Z,51.96
2022-08-18T18:22:00.771Z,52.00
2022-08-18T18:24:24.143Z,51.83
2022-08-18T18:26:52.152Z,52.01
2022-08-18T18:29:21.949Z,52.00
2022-08-18T18:32:01.739Z,51.79
2022-08-18T18:34:32.897Z,51.90
2022-08-18T18:37:01.688Z,52.00
2022-08-18T18:39:33.195Z,51.93
2022-08-18T18:42:11.954Z,52.10
2022-08-18T18:44:39.756Z,52.26
2022-08-18T18:47:09.592Z,52.15
2022-08-18T18:49:40.799Z,52.12
2022-08-18T18:52:11.691Z,52.17
2022-08-18T18:54:56.039Z,52.03
2022-08-18T18:57:32.098Z,52.15
2022-08-18T19:00:09.502Z,52.15
2022-08-18T19:02:39.936Z,52.17
2022-08-18T19:05:14.561Z,51.96
2022-08-18T19:07:50.025Z,52.17
2022-08-18T19:10:21.601Z,52.20
2022-08-18T19:12:52.234Z,52.41
2022-08-18T19:15:21.152Z,52.38
2022-08-18T19:17:50.986Z,52.26
2022-08-18T19:20:20.280Z,52.23
2022-08-18T19:22:49.530Z,52.26
2022-08-18T19:25:22.283Z,52.47
2022-08-18T19:27:52.592Z,52.40
2022-08-18T19:30:21.478Z,52.37
2022-08-18T19:32:51.804Z,52.39
2022-08-18T19:35:23.253Z,52.22
2022-08-18T19:37:58.182Z,52.31
2022-08-18T19:40:32.513Z,52.48
2022-08-18T19:43:01.608Z,52.47
2022-08-18T19:45:33.542Z,52.46
2022-08-18T19:48:04.598Z,52.49
2022-08-18T19:50:34.599Z,52.35
2022-08-18T19:53:06.697Z,52.55
2022-08-18T19:55:48.641Z,52.36
2022-08-18T19:58:40.530Z,52.51
2022-08-18T20:01:30.751Z,52.39
2022-08-18T20:04:03.908Z,52.28
2022-08-18T20:06:45.985Z,52.44
2022-08-18T20:09:30.242Z,52.35
2022-08-18T20:12:09.727Z,52.48
2022-08-18T20:14:39.364Z,52.40
2022-08-18T20:17:14.501Z,52.64
2022-08-18T20:19:47.797Z,52.48
2022-08-18T20:22:30.121Z,52.55
2022-08-18T20:25:05.478Z,52.45
2022-08-18T20:27:36.505Z,52.63
2022-08-18T20:30:24.122Z,52.59
2022-08-18T20:33:20.636Z,52.55
2022-08-18T20:35:52.894Z,52.58
2022-08-18T20:38:28.344Z,52.55
2022-08-18T20:40:56.436Z,52.67
2022-08-18T20:43:30.612Z,52.55
2022-08-18T20:46:06.949Z,52.60
2022-08-18T20:48:42.928Z,52.73
2022-08-18T20:51:11.257Z,52.73
2022-08-18T20:54:04.089Z,52.72
2022-08-18T20:56:44.480Z,52.89
2022-08-18T20:59:19.588Z,52.89
2022-08-18T21:01:55.004Z,52.60
2022-08-18T21:04:34.833Z,52.64
2022-08-18T21:07:12.874Z,52.78
2022-08-18T21:09:40.902Z,52.74
2022-08-18T21:12:12.788Z,52.82
2022-08-18T21:14:43.691Z,52.80
2022-08-18T21:17:13.900Z,52.97
2022-08-18T21:19:42.134Z,52.85
2022-08-18T21:22:11.835Z,53.17
2022-08-18T21:24:41.770Z,52.83
2022-08-18T21:27:11.829Z,53.06
2022-08-18T21:29:47.619Z,52.90
2022-08-18T21:32:20.214Z,53.10
2022-08-18T21:34:48.172Z,53.14
2022-08-18T21:37:18.058Z,52.94
2022-08-18T21:39:49.837Z,53.06
2022-08-18T21:42:20.442Z,53.34
2022-08-18T21:44:48.343Z,53.32
2022-08-18T21:47:26.360Z,53.10
2022-08-18T21:50:23.649Z,53.16
2022-08-18T21:52:53.955Z,53.32
2022-08-18T21:55:26.698Z,53.10
2022-08-18T21:58:06.550Z,53.07
2022-08-18T22:00:35.441Z,53.45
2022-08-18T22:03:11.847Z,53.23
2022-08-18T22:05:57.820Z,53.08
2022-08-18T22:08:28.011Z,53.22
2022-08-18T22:11:41.868Z,53.26
2022-08-18T22:14:35.993Z,53.08
2022-08-18T22:17:29.844Z,53.47
2022-08-18T22:20:12.717Z,53.46
2022-08-18T22:22:59.161Z,53.16
2022-08-18T22:25:26.977Z,53.36
2022-08-18T22:27:57.355Z,53.43
2022-08-18T22:30:25.304Z,53.46
2022-08-18T22:32:53.505Z,53.09
2022-08-18T22:35:21.350Z,53.18
2022-08-18T22:37:50.990Z,53.45
2022-08-18T22:40:21.753Z,53.17
2022-08-18T22:42:49.905Z,53.27
2022-08-18T22:45:18.860Z,53.49
2022-08-18T22:47:46.561Z,53.39
2022-08-18T22:50:14.539Z,53.26
2022-08-18T22:52:43.145Z,53.21
2022-08-18T22:55:13.460Z,53.23
2022-08-18T22:57:42.906Z,53.46
2022-08-18T23:00:12.270Z,53.00
2022-08-18T23:02:40.368Z,53.23
2022-08-18T23:05:08.711Z,53.44
2022-08-18T23:07:36.596Z,53.15
2022-08-18T23:10:08.318Z,53.54
2022-08-18T23:12:43.686Z,53.42
2022-08-18T23:15:12.169Z,53.41
2022-08-18T23:17:40.693Z,53.42
2022-08-18T23:20:09.782Z,53.27
2022-08-18T23:22:39.497Z,53.50
2022-08-18T23:25:09.065Z,53.29
2022-08-18T23:27:37.029Z,53.30
2022-08-18T23:30:07.068Z,53.52
2022-08-18T23:32:34.751Z,53.64
2022-08-18T23:35:02.486Z,53.45
2022-08-18T23:37:31.693Z,53.36
2022-08-18T23:39:59.575Z,53.52
2022-08-18T23:42:27.339Z,53.63
2022-08-18T23:44:58.931Z,53.56
2022-08-18T23:47:29.761Z,53.24
2022-08-18T23:49:57.610Z,53.51
2022-08-18T23:52:25.304Z,53.74
2022-08-18T23:54:53.023Z,53.70
2022-08-18T23:57:20.879Z,53.71
2022-08-18T23:59:48.592Z,53.56
